sensor_id;sensor_type;location;lat;lon;timestamp;temperature;humidity
15113;DHT22;7657;50.140;7.076;2023-08-06T00:00:52;16.10;99.90
15113;DHT22;7657;50.140;7.076;2023-08-06T00:03:19;16.00;99.90
15113;DHT22;7657;50.140;7.076;2023-08-06T00:05:46;16.00;99.90
15113;DHT22;7657;50.140;7.076;2023-08-06T00:08:12;16.00;99.90
15113;DHT22;7657;50.140;7.076;2023-08-06T00:10:40;15.90;99.90
15113;DHT22;7657;50.140;7.076;2023-08-06T00:13:07;15.90;99.90
15113;DHT22;7657;50.140;7.076;2023-08-06T00:15:35;15.80;99.90
15113;DHT22;7657;50.140;7.076;2023-08-06T00:18:02;15.80;99.90
15113;DHT22;7657;50.140;7.076;2023-08-06T00:20:29;15.80;99.90
15113;DHT22;7657;50.140;7.076;2023-08-06T00:22:56;15.80;99.90
15113;DHT22;7657;50.140;7.076;2023-08-06T00:25:22;15.90;99.90
15113;DHT22;7657;50.140;7.076;2023-08-06T00:27:49;15.80;99.90
15113;DHT22;7657;50.140;7.076;2023-08-06T00:30:16;15.90;99.90
15113;DHT22;7657;50.140;7.076;2023-08-06T00:32:44;15.90;99.90
15113;DHT22;7657;50.140;7.076;2023-08-06T00:35:11;15.90;99.90
15113;DHT22;7657;50.140;7.076;2023-08-06T00:37:39;15.80;99.90
15113;DHT22;7657;50.140;7.076;2023-08-06T00:40:07;15.80;99.90
15113;DHT22;7657;50.140;7.076;2023-08-06T00:42:34;15.80;99.90
15113;DHT22;7657;50.140;7.076;2023-08-06T00:45:01;15.80;99.90
15113;DHT22;7657;50.140;7.076;2023-08-06T00:47:28;15.70;99.90
15113;DHT22;7657;50.140;7.076;2023-08-06T00:49:57;15.70;99.90
15113;DHT22;7657;50.140;7.076;2023-08-06T00:52:24;15.50;99.90
15113;DHT22;7657;50.140;7.076;2023-08-06T00:54:51;15.60;99.90
15113;DHT22;7657;50.140;7.076;2023-08-06T00:57:18;15.70;99.90
15113;DHT22;7657;50.140;7.076;2023-08-06T00:59:46;15.80;99.90
15113;DHT22;7657;50.140;7.076;2023-08-06T01:02:14;15.80;99.90
15113;DHT22;7657;50.140;7.076;2023-08-06T01:04:40;15.80;99.90
15113;DHT22;7657;50.140;7.076;2023-08-06T01:07:17;15.90;99.90
15113;DHT22;7657;50.140;7.076;2023-08-06T01:09:53;15.90;99.90
15113;DHT22;7657;50.140;7.076;2023-08-06T01:12:31;15.90;99.90
15113;DHT22;7657;50.140;7.076;2023-08-06T01:15:06;15.90;99.90
15113;DHT22;7657;50.140;7.076;2023-08-06T01:17:35;16.00;99.90
15113;DHT22;7657;50.140;7.076;2023-08-06T01:20:02;16.00;99.90
15113;DHT22;7657;50.140;7.076;2023-08-06T01:22:30;16.00;99.90
15113;DHT22;7657;50.140;7.076;2023-08-06T01:24:57;16.00;99.90
15113;DHT22;7657;50.140;7.076;2023-08-06T01:27:30;16.00;99.90
15113;DHT22;7657;50.140;7.076;2023-08-06T01:30:02;16.00;99.90
15113;DHT22;7657;50.140;7.076;2023-08-06T01:32:32;16.00;99.90
15113;DHT22;7657;50.140;7.076;2023-08-06T01:35:00;16.00;99.90
15113;DHT22;7657;50.140;7.076;2023-08-06T01:37:30;16.00;99.90
15113;DHT22;7657;50.140;7.076;2023-08-06T01:39:57;16.00;99.90
15113;DHT22;7657;50.140;7.076;2023-08-06T01:42:24;16.00;99.90
15113;DHT22;7657;50.140;7.076;2023-08-06T01:44:51;16.00;99.90
15113;DHT22;7657;50.140;7.076;2023-08-06T01:47:18;16.00;99.90
15113;DHT22;7657;50.140;7.076;2023-08-06T01:49:45;16.00;99.90
15113;DHT22;7657;50.140;7.076;2023-08-06T01:52:12;16.00;99.90
15113;DHT22;7657;50.140;7.076;2023-08-06T01:54:40;16.00;99.90
15113;DHT22;7657;50.140;7.076;2023-08-06T01:57:07;16.00;99.90
15113;DHT22;7657;50.140;7.076;2023-08-06T01:59:34;16.00;99.90
15113;DHT22;7657;50.140;7.076;2023-08-06T02:02:01;16.00;99.90
15113;DHT22;7657;50.140;7.076;2023-08-06T02:04:28;15.90;99.90
15113;DHT22;7657;50.140;7.076;2023-08-06T02:06:55;16.00;99.90
15113;DHT22;7657;50.140;7.076;2023-08-06T02:09:22;16.00;99.90
15113;DHT22;7657;50.140;7.076;2023-08-06T02:11:50;15.90;99.90
15113;DHT22;7657;50.140;7.076;2023-08-06T02:14:17;15.80;99.90
15113;DHT22;7657;50.140;7.076;2023-08-06T02:16:44;15.80;99.90
15113;DHT22;7657;50.140;7.076;2023-08-06T02:19:11;15.80;99.90
15113;DHT22;7657;50.140;7.076;2023-08-06T02:21:38;15.70;99.90
15113;DHT22;7657;50.140;7.076;2023-08-06T02:24:05;15.70;99.90
15113;DHT22;7657;50.140;7.076;2023-08-06T02:26:31;15.60;99.90
15113;DHT22;7657;50.140;7.076;2023-08-06T02:29:00;15.60;99.90
15113;DHT22;7657;50.140;7.076;2023-08-06T02:31:26;15.60;99.90
15113;DHT22;7657;50.140;7.076;2023-08-06T02:33:53;15.60;99.90
15113;DHT22;7657;50.140;7.076;2023-08-06T02:36:20;15.60;99.90
15113;DHT22;7657;50.140;7.076;2023-08-06T02:38:47;15.60;99.90
15113;DHT22;7657;50.140;7.076;2023-08-06T02:41:14;15.50;99.90
15113;DHT22;7657;50.140;7.076;2023-08-06T02:43:41;15.50;99.90
15113;DHT22;7657;50.140;7.076;2023-08-06T02:46:09;15.50;99.90
15113;DHT22;7657;50.140;7.076;2023-08-06T02:48:36;15.50;99.90
15113;DHT22;7657;50.140;7.076;2023-08-06T02:51:03;15.50;99.90
15113;DHT22;7657;50.140;7.076;2023-08-06T02:53:30;15.50;99.90
15113;DHT22;7657;50.140;7.076;2023-08-06T02:55:57;15.40;99.90
15113;DHT22;7657;50.140;7.076;2023-08-06T02:58:23;15.40;99.90
15113;DHT22;7657;50.140;7.076;2023-08-06T03:01:00;15.40;99.90
15113;DHT22;7657;50.140;7.076;2023-08-06T03:03:29;15.40;99.90
15113;DHT22;7657;50.140;7.076;2023-08-06T03:05:56;15.40;99.90
15113;DHT22;7657;50.140;7.076;2023-08-06T03:08:23;15.40;99.90
15113;DHT22;7657;50.140;7.076;2023-08-06T03:10:50;15.40;99.90
15113;DHT22;7657;50.140;7.076;2023-08-06T03:13:17;15.40;99.90
15113;DHT22;7657;50.140;7.076;2023-08-06T03:15:52;15.40;99.90
15113;DHT22;7657;50.140;7.076;2023-08-06T03:18:19;15.40;99.90
15113;DHT22;7657;50.140;7.076;2023-08-06T03:20:48;15.40;99.90
15113;DHT22;7657;50.140;7.076;2023-08-06T03:23:15;15.40;99.90
15113;DHT22;7657;50.140;7.076;2023-08-06T03:25:42;15.40;99.90
15113;DHT22;7657;50.140;7.076;2023-08-06T03:28:08;15.40;99.90
15113;DHT22;7657;50.140;7.076;2023-08-06T03:30:35;15.40;99.90
15113;DHT22;7657;50.140;7.076;2023-08-06T03:33:02;15.40;99.90
15113;DHT22;7657;50.140;7.076;2023-08-06T03:35:29;15.40;99.90
15113;DHT22;7657;50.140;7.076;2023-08-06T03:37:57;15.50;99.90
15113;DHT22;7657;50.140;7.076;2023-08-06T03:40:24;15.50;99.90
15113;DHT22;7657;50.140;7.076;2023-08-06T03:42:51;15.50;99.90
15113;DHT22;7657;50.140;7.076;2023-08-06T03:45:18;15.50;99.90
15113;DHT22;7657;50.140;7.076;2023-08-06T03:47:45;15.50;99.90
15113;DHT22;7657;50.140;7.076;2023-08-06T03:50:12;15.50;99.90
15113;DHT22;7657;50.140;7.076;2023-08-06T03:52:39;15.40;99.90
15113;DHT22;7657;50.140;7.076;2023-08-06T03:55:07;15.50;99.90
15113;DHT22;7657;50.140;7.076;2023-08-06T03:57:34;15.40;99.90
15113;DHT22;7657;50.140;7.076;2023-08-06T04:00:01;15.40;99.90
15113;DHT22;7657;50.140;7.076;2023-08-06T04:02:28;15.40;99.90
15113;DHT22;7657;50.140;7.076;2023-08-06T04:04:55;15.40;99.90
15113;DHT22;7657;50.140;7.076;2023-08-06T04:07:24;15.40;99.90
15113;DHT22;7657;50.140;7.076;2023-08-06T04:09:53;15.40;99.90
15113;DHT22;7657;50.140;7.076;2023-08-06T04:12:22;15.40;99.90
15113;DHT22;7657;50.140;7.076;2023-08-06T04:14:50;15.40;99.90
15113;DHT22;7657;50.140;7.076;2023-08-06T04:17:17;15.40;99.90
15113;DHT22;7657;50.140;7.076;2023-08-06T04:19:46;15.40;99.90
15113;DHT22;7657;50.140;7.076;2023-08-06T04:22:14;15.20;99.90
15113;DHT22;7657;50.140;7.076;2023-08-06T04:24:41;15.30;99.90
15113;DHT22;7657;50.140;7.076;2023-08-06T04:27:08;15.30;99.90
15113;DHT22;7657;50.140;7.076;2023-08-06T04:29:37;15.30;99.90
15113;DHT22;7657;50.140;7.076;2023-08-06T04:32:07;15.30;99.90
15113;DHT22;7657;50.140;7.076;2023-08-06T04:34:34;15.30;99.90
15113;DHT22;7657;50.140;7.076;2023-08-06T04:37:02;15.40;99.90
15113;DHT22;7657;50.140;7.076;2023-08-06T04:39:29;15.30;99.90
15113;DHT22;7657;50.140;7.076;2023-08-06T04:41:56;15.30;99.90
15113;DHT22;7657;50.140;7.076;2023-08-06T04:44:23;15.30;99.90
15113;DHT22;7657;50.140;7.076;2023-08-06T04:46:52;15.20;99.90
15113;DHT22;7657;50.140;7.076;2023-08-06T04:49:20;15.10;99.90
15113;DHT22;7657;50.140;7.076;2023-08-06T04:51:47;15.00;99.90
15113;DHT22;7657;50.140;7.076;2023-08-06T04:54:14;15.10;99.90
15113;DHT22;7657;50.140;7.076;2023-08-06T04:56:41;15.10;99.90
15113;DHT22;7657;50.140;7.076;2023-08-06T04:59:08;15.20;99.90
15113;DHT22;7657;50.140;7.076;2023-08-06T05:01:35;15.10;99.90
15113;DHT22;7657;50.140;7.076;2023-08-06T05:04:03;15.10;99.90
15113;DHT22;7657;50.140;7.076;2023-08-06T05:06:30;15.10;99.90
15113;DHT22;7657;50.140;7.076;2023-08-06T05:08:57;15.20;99.90
15113;DHT22;7657;50.140;7.076;2023-08-06T05:11:24;15.20;99.90
15113;DHT22;7657;50.140;7.076;2023-08-06T05:13:51;15.20;99.90
15113;DHT22;7657;50.140;7.076;2023-08-06T05:16:18;15.00;99.90
15113;DHT22;7657;50.140;7.076;2023-08-06T05:18:45;15.00;99.90
15113;DHT22;7657;50.140;7.076;2023-08-06T05:21:13;14.90;99.90
15113;DHT22;7657;50.140;7.076;2023-08-06T05:23:41;14.90;99.90
15113;DHT22;7657;50.140;7.076;2023-08-06T05:26:08;14.90;99.90
15113;DHT22;7657;50.140;7.076;2023-08-06T05:28:35;15.00;99.90
15113;DHT22;7657;50.140;7.076;2023-08-06T05:31:03;15.00;99.90
15113;DHT22;7657;50.140;7.076;2023-08-06T05:33:30;14.90;99.90
15113;DHT22;7657;50.140;7.076;2023-08-06T05:35:57;15.00;99.90
15113;DHT22;7657;50.140;7.076;2023-08-06T05:38:26;14.90;99.90
15113;DHT22;7657;50.140;7.076;2023-08-06T05:40:53;14.90;99.90
15113;DHT22;7657;50.140;7.076;2023-08-06T05:43:20;14.90;99.90
15113;DHT22;7657;50.140;7.076;2023-08-06T05:45:49;14.90;99.90
15113;DHT22;7657;50.140;7.076;2023-08-06T05:48:16;15.00;99.90
15113;DHT22;7657;50.140;7.076;2023-08-06T05:50:43;15.00;99.90
15113;DHT22;7657;50.140;7.076;2023-08-06T05:53:10;15.00;99.90
15113;DHT22;7657;50.140;7.076;2023-08-06T05:55:39;15.00;99.90
15113;DHT22;7657;50.140;7.076;2023-08-06T05:58:06;15.00;99.90
15113;DHT22;7657;50.140;7.076;2023-08-06T06:00:32;15.00;99.90
15113;DHT22;7657;50.140;7.076;2023-08-06T06:03:00;15.00;99.90
15113;DHT22;7657;50.140;7.076;2023-08-06T06:05:27;15.00;99.90
15113;DHT22;7657;50.140;7.076;2023-08-06T06:07:54;15.10;99.90
15113;DHT22;7657;50.140;7.076;2023-08-06T06:10:21;15.20;99.90
15113;DHT22;7657;50.140;7.076;2023-08-06T06:12:49;15.20;99.90
15113;DHT22;7657;50.140;7.076;2023-08-06T06:15:16;15.20;99.90
15113;DHT22;7657;50.140;7.076;2023-08-06T06:17:43;15.10;99.90
15113;DHT22;7657;50.140;7.076;2023-08-06T06:20:10;15.20;99.90
15113;DHT22;7657;50.140;7.076;2023-08-06T06:22:37;15.20;99.90
15113;DHT22;7657;50.140;7.076;2023-08-06T06:25:05;15.20;99.90
15113;DHT22;7657;50.140;7.076;2023-08-06T06:27:32;15.20;99.90
15113;DHT22;7657;50.140;7.076;2023-08-06T06:30:00;15.10;99.90
15113;DHT22;7657;50.140;7.076;2023-08-06T06:32:28;15.10;99.90
15113;DHT22;7657;50.140;7.076;2023-08-06T06:34:54;15.10;99.90
15113;DHT22;7657;50.140;7.076;2023-08-06T06:37:22;15.30;99.90
15113;DHT22;7657;50.140;7.076;2023-08-06T06:39:49;15.30;99.90
15113;DHT22;7657;50.140;7.076;2023-08-06T06:42:16;15.40;99.90
15113;DHT22;7657;50.140;7.076;2023-08-06T06:44:43;15.40;99.90
15113;DHT22;7657;50.140;7.076;2023-08-06T06:47:11;15.40;99.90
15113;DHT22;7657;50.140;7.076;2023-08-06T06:49:38;15.50;99.90
15113;DHT22;7657;50.140;7.076;2023-08-06T06:52:05;15.40;99.90
15113;DHT22;7657;50.140;7.076;2023-08-06T06:54:32;15.40;99.90
15113;DHT22;7657;50.140;7.076;2023-08-06T06:56:59;15.50;99.90
15113;DHT22;7657;50.140;7.076;2023-08-06T06:59:26;15.60;99.90
15113;DHT22;7657;50.140;7.076;2023-08-06T07:01:53;15.60;99.90
15113;DHT22;7657;50.140;7.076;2023-08-06T07:04:21;15.60;99.90
15113;DHT22;7657;50.140;7.076;2023-08-06T07:06:48;15.60;99.90
15113;DHT22;7657;50.140;7.076;2023-08-06T07:09:15;15.60;99.90
15113;DHT22;7657;50.140;7.076;2023-08-06T07:11:42;15.50;99.90
15113;DHT22;7657;50.140;7.076;2023-08-06T07:14:09;15.50;99.90
15113;DHT22;7657;50.140;7.076;2023-08-06T07:16:36;15.40;99.90
15113;DHT22;7657;50.140;7.076;2023-08-06T07:19:03;15.60;99.90
15113;DHT22;7657;50.140;7.076;2023-08-06T07:21:32;15.60;99.90
15113;DHT22;7657;50.140;7.076;2023-08-06T07:23:59;15.60;99.90
15113;DHT22;7657;50.140;7.076;2023-08-06T07:26:26;15.70;99.90
15113;DHT22;7657;50.140;7.076;2023-08-06T07:28:53;15.80;99.90
15113;DHT22;7657;50.140;7.076;2023-08-06T07:31:20;15.80;99.90
15113;DHT22;7657;50.140;7.076;2023-08-06T07:33:46;15.80;99.90
15113;DHT22;7657;50.140;7.076;2023-08-06T07:36:14;15.70;99.90
15113;DHT22;7657;50.140;7.076;2023-08-06T07:38:42;15.70;99.90
15113;DHT22;7657;50.140;7.076;2023-08-06T07:41:09;15.90;99.90
15113;DHT22;7657;50.140;7.076;2023-08-06T07:43:36;15.90;99.90
15113;DHT22;7657;50.140;7.076;2023-08-06T07:46:03;16.00;99.90
15113;DHT22;7657;50.140;7.076;2023-08-06T07:48:31;16.10;99.90
15113;DHT22;7657;50.140;7.076;2023-08-06T07:50:58;15.90;99.90
15113;DHT22;7657;50.140;7.076;2023-08-06T07:53:25;15.90;99.90
15113;DHT22;7657;50.140;7.076;2023-08-06T07:55:56;16.00;99.90
15113;DHT22;7657;50.140;7.076;2023-08-06T07:58:24;16.00;99.90
15113;DHT22;7657;50.140;7.076;2023-08-06T08:00:51;16.10;99.90
15113;DHT22;7657;50.140;7.076;2023-08-06T08:03:18;16.10;99.90
15113;DHT22;7657;50.140;7.076;2023-08-06T08:05:45;16.10;99.90
15113;DHT22;7657;50.140;7.076;2023-08-06T08:08:12;16.10;99.90
15113;DHT22;7657;50.140;7.076;2023-08-06T08:10:39;16.10;99.90
15113;DHT22;7657;50.140;7.076;2023-08-06T08:13:08;16.10;99.90
15113;DHT22;7657;50.140;7.076;2023-08-06T08:15:35;16.00;99.90
15113;DHT22;7657;50.140;7.076;2023-08-06T08:18:02;16.00;99.90
15113;DHT22;7657;50.140;7.076;2023-08-06T08:20:29;16.10;99.90
15113;DHT22;7657;50.140;7.076;2023-08-06T08:22:58;16.20;99.90
15113;DHT22;7657;50.140;7.076;2023-08-06T08:25:26;16.20;99.90
15113;DHT22;7657;50.140;7.076;2023-08-06T08:27:53;16.20;99.90
15113;DHT22;7657;50.140;7.076;2023-08-06T08:30:21;16.10;99.90
15113;DHT22;7657;50.140;7.076;2023-08-06T08:32:50;15.90;99.90
15113;DHT22;7657;50.140;7.076;2023-08-06T08:35:17;15.90;99.90
15113;DHT22;7657;50.140;7.076;2023-08-06T08:37:44;15.90;99.90
15113;DHT22;7657;50.140;7.076;2023-08-06T08:40:11;16.00;99.90
15113;DHT22;7657;50.140;7.076;2023-08-06T08:42:38;16.10;99.90
15113;DHT22;7657;50.140;7.076;2023-08-06T08:45:07;16.10;99.90
15113;DHT22;7657;50.140;7.076;2023-08-06T08:47:39;16.20;99.90
15113;DHT22;7657;50.140;7.076;2023-08-06T08:50:08;16.10;99.90
15113;DHT22;7657;50.140;7.076;2023-08-06T08:52:36;16.30;99.90
15113;DHT22;7657;50.140;7.076;2023-08-06T08:55:05;16.20;99.90
15113;DHT22;7657;50.140;7.076;2023-08-06T08:57:33;15.70;99.90
15113;DHT22;7657;50.140;7.076;2023-08-06T09:00:00;15.40;99.90
15113;DHT22;7657;50.140;7.076;2023-08-06T09:02:28;15.10;99.90
15113;DHT22;7657;50.140;7.076;2023-08-06T09:05:00;14.90;99.90
15113;DHT22;7657;50.140;7.076;2023-08-06T09:07:31;14.80;99.90
15113;DHT22;7657;50.140;7.076;2023-08-06T09:10:02;14.70;99.90
15113;DHT22;7657;50.140;7.076;2023-08-06T09:12:30;14.70;99.90
15113;DHT22;7657;50.140;7.076;2023-08-06T09:14:57;14.70;99.90
15113;DHT22;7657;50.140;7.076;2023-08-06T09:17:24;14.80;99.90
15113;DHT22;7657;50.140;7.076;2023-08-06T09:19:51;14.90;99.90
15113;DHT22;7657;50.140;7.076;2023-08-06T09:22:19;14.90;99.90
15113;DHT22;7657;50.140;7.076;2023-08-06T09:24:46;15.00;99.90
15113;DHT22;7657;50.140;7.076;2023-08-06T09:27:14;15.10;99.90
15113;DHT22;7657;50.140;7.076;2023-08-06T09:29:41;15.20;99.90
15113;DHT22;7657;50.140;7.076;2023-08-06T09:32:09;15.30;99.90
15113;DHT22;7657;50.140;7.076;2023-08-06T09:34:39;15.40;99.90
15113;DHT22;7657;50.140;7.076;2023-08-06T09:37:07;15.30;99.90
15113;DHT22;7657;50.140;7.076;2023-08-06T09:39:37;15.40;99.90
15113;DHT22;7657;50.140;7.076;2023-08-06T09:42:04;15.50;99.90
15113;DHT22;7657;50.140;7.076;2023-08-06T09:44:32;15.60;99.90
15113;DHT22;7657;50.140;7.076;2023-08-06T09:47:01;15.60;99.90
15113;DHT22;7657;50.140;7.076;2023-08-06T09:49:39;15.50;99.90
15113;DHT22;7657;50.140;7.076;2023-08-06T09:52:10;15.40;99.90
15113;DHT22;7657;50.140;7.076;2023-08-06T09:54:39;15.40;99.90
15113;DHT22;7657;50.140;7.076;2023-08-06T09:57:06;15.20;99.90
15113;DHT22;7657;50.140;7.076;2023-08-06T09:59:34;15.10;99.90
15113;DHT22;7657;50.140;7.076;2023-08-06T10:02:03;15.10;99.90
15113;DHT22;7657;50.140;7.076;2023-08-06T10:04:34;15.30;99.90
15113;DHT22;7657;50.140;7.076;2023-08-06T10:07:01;15.40;99.90
15113;DHT22;7657;50.140;7.076;2023-08-06T10:09:28;15.40;99.90
15113;DHT22;7657;50.140;7.076;2023-08-06T10:11:56;15.40;99.90
15113;DHT22;7657;50.140;7.076;2023-08-06T10:14:26;15.40;99.90
15113;DHT22;7657;50.140;7.076;2023-08-06T10:16:56;15.40;99.90
15113;DHT22;7657;50.140;7.076;2023-08-06T10:19:25;15.30;99.90
15113;DHT22;7657;50.140;7.076;2023-08-06T10:22:10;15.30;99.90
15113;DHT22;7657;50.140;7.076;2023-08-06T10:24:51;15.30;99.90
15113;DHT22;7657;50.140;7.076;2023-08-06T10:27:28;15.40;99.90
15113;DHT22;7657;50.140;7.076;2023-08-06T10:29:55;15.30;99.90
15113;DHT22;7657;50.140;7.076;2023-08-06T10:32:22;15.30;99.90
15113;DHT22;7657;50.140;7.076;2023-08-06T10:35:27;15.30;99.90
15113;DHT22;7657;50.140;7.076;2023-08-06T10:37:58;15.20;99.90
15113;DHT22;7657;50.140;7.076;2023-08-06T10:40:25;15.20;99.90
15113;DHT22;7657;50.140;7.076;2023-08-06T10:42:54;15.10;99.90
15113;DHT22;7657;50.140;7.076;2023-08-06T10:45:20;15.10;99.90
15113;DHT22;7657;50.140;7.076;2023-08-06T10:47:49;15.10;99.90
15113;DHT22;7657;50.140;7.076;2023-08-06T10:50:17;14.80;99.90
15113;DHT22;7657;50.140;7.076;2023-08-06T10:52:44;14.80;99.90
15113;DHT22;7657;50.140;7.076;2023-08-06T10:55:12;14.80;99.90
15113;DHT22;7657;50.140;7.076;2023-08-06T10:57:39;14.60;99.90
15113;DHT22;7657;50.140;7.076;2023-08-06T11:00:09;14.70;99.90
15113;DHT22;7657;50.140;7.076;2023-08-06T11:02:39;14.70;99.90
15113;DHT22;7657;50.140;7.076;2023-08-06T11:05:07;14.70;99.90
15113;DHT22;7657;50.140;7.076;2023-08-06T11:07:34;14.70;99.90
15113;DHT22;7657;50.140;7.076;2023-08-06T11:10:02;14.70;99.90
15113;DHT22;7657;50.140;7.076;2023-08-06T11:12:30;14.70;99.90
15113;DHT22;7657;50.140;7.076;2023-08-06T11:14:57;14.70;99.90
15113;DHT22;7657;50.140;7.076;2023-08-06T11:17:26;14.50;99.90
15113;DHT22;7657;50.140;7.076;2023-08-06T11:19:53;14.50;99.90
15113;DHT22;7657;50.140;7.076;2023-08-06T11:22:21;14.30;99.90
15113;DHT22;7657;50.140;7.076;2023-08-06T11:24:48;14.30;99.90
15113;DHT22;7657;50.140;7.076;2023-08-06T11:27:15;14.30;99.90
15113;DHT22;7657;50.140;7.076;2023-08-06T11:29:43;14.20;99.90
15113;DHT22;7657;50.140;7.076;2023-08-06T11:32:11;14.20;99.90
15113;DHT22;7657;50.140;7.076;2023-08-06T11:34:40;14.10;99.90
15113;DHT22;7657;50.140;7.076;2023-08-06T11:37:07;14.10;99.90
15113;DHT22;7657;50.140;7.076;2023-08-06T11:39:36;14.20;99.90
15113;DHT22;7657;50.140;7.076;2023-08-06T11:42:04;14.10;99.90
15113;DHT22;7657;50.140;7.076;2023-08-06T11:44:31;14.00;99.90
15113;DHT22;7657;50.140;7.076;2023-08-06T11:46:59;14.00;99.90
15113;DHT22;7657;50.140;7.076;2023-08-06T11:49:43;14.00;99.90
15113;DHT22;7657;50.140;7.076;2023-08-06T11:52:14;14.20;99.90
15113;DHT22;7657;50.140;7.076;2023-08-06T11:54:41;14.10;99.90
15113;DHT22;7657;50.140;7.076;2023-08-06T11:57:08;14.10;99.90
15113;DHT22;7657;50.140;7.076;2023-08-06T11:59:34;14.10;99.90
15113;DHT22;7657;50.140;7.076;2023-08-06T12:02:02;14.10;99.90
15113;DHT22;7657;50.140;7.076;2023-08-06T12:04:31;14.10;99.90
15113;DHT22;7657;50.140;7.076;2023-08-06T12:07:06;14.10;99.90
15113;DHT22;7657;50.140;7.076;2023-08-06T12:09:34;14.10;99.90
15113;DHT22;7657;50.140;7.076;2023-08-06T12:12:02;14.00;99.90
15113;DHT22;7657;50.140;7.076;2023-08-06T12:14:30;13.80;99.90
15113;DHT22;7657;50.140;7.076;2023-08-06T12:16:56;13.90;99.90
15113;DHT22;7657;50.140;7.076;2023-08-06T12:19:23;13.70;99.90
15113;DHT22;7657;50.140;7.076;2023-08-06T12:21:51;13.70;99.90
15113;DHT22;7657;50.140;7.076;2023-08-06T12:24:20;13.70;99.90
15113;DHT22;7657;50.140;7.076;2023-08-06T12:26:46;13.70;99.90
15113;DHT22;7657;50.140;7.076;2023-08-06T12:29:13;13.70;99.90
15113;DHT22;7657;50.140;7.076;2023-08-06T12:31:40;13.80;99.90
15113;DHT22;7657;50.140;7.076;2023-08-06T12:34:07;13.70;99.90
15113;DHT22;7657;50.140;7.076;2023-08-06T12:36:34;13.80;99.90
15113;DHT22;7657;50.140;7.076;2023-08-06T12:39:01;13.70;99.90
15113;DHT22;7657;50.140;7.076;2023-08-06T12:41:29;13.80;99.90
15113;DHT22;7657;50.140;7.076;2023-08-06T12:43:56;13.90;99.90
15113;DHT22;7657;50.140;7.076;2023-08-06T12:46:23;13.90;99.90
15113;DHT22;7657;50.140;7.076;2023-08-06T12:48:49;13.90;99.90
15113;DHT22;7657;50.140;7.076;2023-08-06T12:51:16;13.90;99.90
15113;DHT22;7657;50.140;7.076;2023-08-06T12:53:43;13.80;99.90
15113;DHT22;7657;50.140;7.076;2023-08-06T12:56:10;13.80;99.90
15113;DHT22;7657;50.140;7.076;2023-08-06T12:58:38;13.80;99.90
15113;DHT22;7657;50.140;7.076;2023-08-06T13:01:07;13.80;99.90
15113;DHT22;7657;50.140;7.076;2023-08-06T13:03:34;13.80;99.90
15113;DHT22;7657;50.140;7.076;2023-08-06T13:06:01;13.90;99.90
15113;DHT22;7657;50.140;7.076;2023-08-06T13:08:28;13.90;99.90
15113;DHT22;7657;50.140;7.076;2023-08-06T13:10:54;13.90;99.90
15113;DHT22;7657;50.140;7.076;2023-08-06T13:13:21;13.90;99.90
15113;DHT22;7657;50.140;7.076;2023-08-06T13:15:50;13.80;99.90
15113;DHT22;7657;50.140;7.076;2023-08-06T13:18:16;13.70;99.90
15113;DHT22;7657;50.140;7.076;2023-08-06T13:20:43;13.70;99.90
15113;DHT22;7657;50.140;7.076;2023-08-06T13:23:12;13.70;99.90
15113;DHT22;7657;50.140;7.076;2023-08-06T13:25:41;13.60;99.90
15113;DHT22;7657;50.140;7.076;2023-08-06T13:28:08;13.70;99.90
15113;DHT22;7657;50.140;7.076;2023-08-06T13:30:35;13.70;99.90
15113;DHT22;7657;50.140;7.076;2023-08-06T13:33:08;13.70;99.90
15113;DHT22;7657;50.140;7.076;2023-08-06T13:35:35;13.60;99.90
15113;DHT22;7657;50.140;7.076;2023-08-06T13:38:02;13.60;99.90
15113;DHT22;7657;50.140;7.076;2023-08-06T13:40:30;13.60;99.90
15113;DHT22;7657;50.140;7.076;2023-08-06T13:42:56;13.60;99.90
15113;DHT22;7657;50.140;7.076;2023-08-06T13:45:23;13.60;99.90
15113;DHT22;7657;50.140;7.076;2023-08-06T13:47:50;13.50;99.90
15113;DHT22;7657;50.140;7.076;2023-08-06T13:50:18;13.60;99.90
15113;DHT22;7657;50.140;7.076;2023-08-06T13:52:47;13.50;99.90
15113;DHT22;7657;50.140;7.076;2023-08-06T13:55:14;13.50;99.90
15113;DHT22;7657;50.140;7.076;2023-08-06T13:57:42;13.40;99.90
15113;DHT22;7657;50.140;7.076;2023-08-06T14:00:09;13.40;99.90
15113;DHT22;7657;50.140;7.076;2023-08-06T14:02:36;13.40;99.90
15113;DHT22;7657;50.140;7.076;2023-08-06T14:05:04;13.50;99.90
15113;DHT22;7657;50.140;7.076;2023-08-06T14:07:32;13.40;99.90
15113;DHT22;7657;50.140;7.076;2023-08-06T14:09:59;13.50;99.90
15113;DHT22;7657;50.140;7.076;2023-08-06T14:12:26;13.50;99.90
15113;DHT22;7657;50.140;7.076;2023-08-06T14:14:53;13.60;99.90
15113;DHT22;7657;50.140;7.076;2023-08-06T14:17:20;13.60;99.90
15113;DHT22;7657;50.140;7.076;2023-08-06T14:19:47;13.60;99.90
15113;DHT22;7657;50.140;7.076;2023-08-06T14:22:13;13.60;99.90
15113;DHT22;7657;50.140;7.076;2023-08-06T14:24:42;13.70;99.90
15113;DHT22;7657;50.140;7.076;2023-08-06T14:27:08;13.80;99.90
15113;DHT22;7657;50.140;7.076;2023-08-06T14:29:35;13.90;99.90
15113;DHT22;7657;50.140;7.076;2023-08-06T14:32:03;13.80;99.90
15113;DHT22;7657;50.140;7.076;2023-08-06T14:34:29;13.90;99.90
15113;DHT22;7657;50.140;7.076;2023-08-06T14:36:56;13.90;99.90
15113;DHT22;7657;50.140;7.076;2023-08-06T14:39:24;14.00;99.90
15113;DHT22;7657;50.140;7.076;2023-08-06T14:41:53;14.10;99.90
15113;DHT22;7657;50.140;7.076;2023-08-06T14:44:19;14.10;99.90
15113;DHT22;7657;50.140;7.076;2023-08-06T14:46:46;14.10;99.90
15113;DHT22;7657;50.140;7.076;2023-08-06T14:49:13;14.20;99.90
15113;DHT22;7657;50.140;7.076;2023-08-06T14:51:40;14.30;99.90
15113;DHT22;7657;50.140;7.076;2023-08-06T14:54:07;14.40;99.90
15113;DHT22;7657;50.140;7.076;2023-08-06T14:56:34;14.60;99.90
15113;DHT22;7657;50.140;7.076;2023-08-06T14:59:02;14.60;99.90
15113;DHT22;7657;50.140;7.076;2023-08-06T15:01:29;14.50;99.90
15113;DHT22;7657;50.140;7.076;2023-08-06T15:03:56;14.60;99.90
15113;DHT22;7657;50.140;7.076;2023-08-06T15:06:23;14.50;99.90
15113;DHT22;7657;50.140;7.076;2023-08-06T15:08:49;14.50;99.90
15113;DHT22;7657;50.140;7.076;2023-08-06T15:11:16;14.50;99.90
15113;DHT22;7657;50.140;7.076;2023-08-06T15:13:43;14.60;99.90
15113;DHT22;7657;50.140;7.076;2023-08-06T15:16:11;14.50;99.90
15113;DHT22;7657;50.140;7.076;2023-08-06T15:18:38;14.40;99.90
15113;DHT22;7657;50.140;7.076;2023-08-06T15:21:05;14.50;99.90
15113;DHT22;7657;50.140;7.076;2023-08-06T15:23:32;14.60;99.90
15113;DHT22;7657;50.140;7.076;2023-08-06T15:25:59;14.50;99.90
15113;DHT22;7657;50.140;7.076;2023-08-06T15:28:26;14.50;99.90
15113;DHT22;7657;50.140;7.076;2023-08-06T15:30:54;14.30;99.90
15113;DHT22;7657;50.140;7.076;2023-08-06T15:33:23;14.30;99.90
15113;DHT22;7657;50.140;7.076;2023-08-06T15:35:50;14.30;99.90
15113;DHT22;7657;50.140;7.076;2023-08-06T15:38:17;14.30;99.90
15113;DHT22;7657;50.140;7.076;2023-08-06T15:40:43;14.30;99.90
15113;DHT22;7657;50.140;7.076;2023-08-06T15:43:12;14.20;99.90
15113;DHT22;7657;50.140;7.076;2023-08-06T15:45:39;14.10;99.90
15113;DHT22;7657;50.140;7.076;2023-08-06T15:48:06;14.00;99.90